Time;durP1;ratioP1;P1;durP2;ratioP2;P2;SDS_P1;SDS_P2;PMS_P1;PMS_P2;Temp;Humidity;BMP_temperature;BMP_pressure;BME280_temperature;BME280_humidity;BME280_pressure;Samples;Min_cycle;Max_cycle;Signal;HPM_P1;HPM_P2
2021/07/20 00:00:33;;;;;;;2.60;2.40;;;15.90;99.90;;;;;;4862897;29;20545;-75
2021/07/20 00:02:58;;;;;;;2.60;2.40;;;15.90;99.90;;;;;;4847306;29;20424;-82
2021/07/20 00:05:28;;;;;;;2.13;2.03;;;15.80;99.90;;;;;;4852438;29;20403;-77
2021/07/20 00:07:55;;;;;;;2.50;2.30;;;15.80;99.90;;;;;;4857630;29;20430;-76
2021/07/20 00:10:24;;;;;;;2.55;2.35;;;15.80;99.90;;;;;;4839436;29;20415;-76
2021/07/20 00:12:50;;;;;;;2.38;2.17;;;15.70;99.90;;;;;;4844249;29;20413;-75
2021/07/20 00:15:16;;;;;;;2.70;2.38;;;15.70;99.90;;;;;;4849097;29;20430;-76
2021/07/20 00:17:42;;;;;;;2.43;2.23;;;15.70;99.90;;;;;;4859175;29;20420;-75
2021/07/20 00:20:12;;;;;;;2.45;2.25;;;15.60;99.90;;;;;;4859517;29;20417;-77
2021/07/20 00:22:38;;;;;;;2.50;2.30;;;15.50;99.90;;;;;;4859771;29;20489;-75
2021/07/20 00:25:05;;;;;;;2.90;2.50;;;15.50;99.90;;;;;;4851623;29;20482;-74
2021/07/20 00:27:31;;;;;;;2.60;2.33;;;15.50;99.90;;;;;;4857450;29;20542;-77
2021/07/20 00:29:57;;;;;;;2.92;2.13;;;15.50;99.90;;;;;;4867738;29;20455;-75
2021/07/20 00:32:23;;;;;;;2.70;2.50;;;15.50;99.90;;;;;;4836947;29;20409;-76
2021/07/20 00:34:48;;;;;;;2.25;2.08;;;15.50;99.90;;;;;;4852690;29;20460;-75
2021/07/20 00:37:14;;;;;;;2.20;2.00;;;15.50;99.90;;;;;;4849705;29;21153;-75
2021/07/20 00:39:40;;;;;;;2.13;1.95;;;15.50;99.90;;;;;;4862401;29;20747;-74
2021/07/20 00:42:06;;;;;;;2.30;2.15;;;15.60;99.90;;;;;;4859300;29;20472;-75
2021/07/20 00:44:32;;;;;;;3.87;2.60;;;15.60;99.90;;;;;;4852414;29;20419;-75
2021/07/20 00:46:58;;;;;;;3.88;2.30;;;15.60;99.90;;;;;;4858289;29;20420;-75
2021/07/20 00:49:24;;;;;;;2.40;2.20;;;15.50;99.90;;;;;;4860176;29;23202;-77
2021/07/20 00:51:51;;;;;;;2.80;2.60;;;15.50;99.90;;;;;;4858229;29;20519;-75
2021/07/20 00:54:17;;;;;;;4.47;2.42;;;15.40;99.90;;;;;;4848480;29;20413;-75
2021/07/20 00:56:43;;;;;;;2.60;2.40;;;15.30;99.90;;;;;;4866260;29;20410;-75
2021/07/20 00:59:09;;;;;;;3.00;2.70;;;15.30;99.90;;;;;;4860870;29;20911;-76
2021/07/20 01:01:35;;;;;;;2.85;2.35;;;15.30;99.90;;;;;;4868467;29;20465;-82
2021/07/20 01:04:01;;;;;;;2.30;2.10;;;15.30;99.90;;;;;;4841080;29;20802;-79
2021/07/20 01:06:30;;;;;;;2.42;2.08;;;15.30;99.90;;;;;;4858537;29;20448;-75
2021/07/20 01:08:58;;;;;;;2.40;2.20;;;15.30;99.90;;;;;;4852604;29;20410;-75
2021/07/20 01:11:26;;;;;;;4.00;2.50;;;15.40;99.90;;;;;;4853521;29;20425;-77
2021/07/20 01:13:53;;;;;;;2.67;2.47;;;15.40;99.90;;;;;;4853917;29;20741;-76
2021/07/20 01:16:22;;;;;;;2.20;2.00;;;15.50;99.90;;;;;;4836161;29;21040;-76
2021/07/20 01:18:48;;;;;;;2.40;2.20;;;15.50;99.90;;;;;;4843501;29;20422;-75
2021/07/20 01:21:13;;;;;;;2.28;2.08;;;15.50;99.90;;;;;;4831023;29;20436;-77
2021/07/20 01:23:44;;;;;;;2.65;2.45;;;15.40;99.90;;;;;;4850083;29;20410;-77
2021/07/20 01:26:11;;;;;;;3.20;2.90;;;15.50;99.90;;;;;;4857594;29;20411;-76
2021/07/20 01:28:39;;;;;;;2.47;2.20;;;15.40;99.90;;;;;;4845810;29;20470;-75
2021/07/20 01:31:09;;;;;;;2.90;2.60;;;15.30;99.90;;;;;;4865995;29;20418;-78
2021/07/20 01:33:38;;;;;;;3.22;2.92;;;15.20;99.90;;;;;;4868504;29;20406;-79
2021/07/20 01:36:06;;;;;;;2.38;2.28;;;15.20;99.90;;;;;;4863615;29;20416;-75
2021/07/20 01:38:31;;;;;;;2.20;2.10;;;15.10;99.90;;;;;;4859593;29;21059;-75
2021/07/20 01:41:06;;;;;;;2.10;2.00;;;15.10;99.90;;;;;;4840573;29;20421;-75
2021/07/20 01:43:34;;;;;;;2.80;2.60;;;15.20;99.90;;;;;;4856684;29;20490;-75
2021/07/20 01:46:00;;;;;;;2.75;2.55;;;15.20;99.90;;;;;;4872992;29;20418;-74
2021/07/20 01:48:31;;;;;;;3.03;2.73;;;15.10;99.90;;;;;;4861520;29;20487;-74
2021/07/20 01:50:57;;;;;;;2.88;2.67;;;15.10;99.90;;;;;;4847965;29;20565;-78
2021/07/20 01:53:23;;;;;;;2.00;1.90;;;15.00;99.90;;;;;;4835150;29;20484;-77
2021/07/20 01:55:49;;;;;;;2.80;2.60;;;14.90;99.90;;;;;;4862494;29;20419;-76
2021/07/20 01:58:14;;;;;;;2.27;2.17;;;15.00;99.90;;;;;;4851534;29;20428;-75
2021/07/20 02:00:49;;;;;;;2.53;2.42;;;15.00;99.90;;;;;;4858189;29;20457;-77
2021/07/20 02:03:56;;;;;;;2.33;2.13;;;14.90;99.90;;;;;;4858700;29;20429;-77
2021/07/20 02:09:23;;;;;;;2.72;2.53;;;14.80;99.90;;;;;;4869443;29;20460;-77
2021/07/20 02:11:49;;;;;;;2.28;2.17;;;14.90;99.90;;;;;;4847685;29;20904;-76
2021/07/20 02:14:25;;;;;;;4.00;2.80;;;14.90;99.90;;;;;;4854792;29;20440;-75
2021/07/20 02:17:13;;;;;;;2.65;2.45;;;15.00;99.90;;;;;;4849202;29;20410;-76
2021/07/20 02:19:45;;;;;;;3.05;2.60;;;15.00;99.90;;;;;;4839313;29;20420;-75
2021/07/20 02:22:19;;;;;;;2.95;2.55;;;14.90;99.90;;;;;;4853969;29;20567;-73
2021/07/20 02:24:50;;;;;;;3.00;2.70;;;14.90;99.90;;;;;;4862080;29;20412;-76
2021/07/20 02:27:17;;;;;;;2.50;2.30;;;14.80;99.90;;;;;;4846261;29;20421;-74
2021/07/20 02:29:58;;;;;;;2.60;2.40;;;14.70;99.90;;;;;;4874130;29;21351;-79
2021/07/20 02:32:25;;;;;;;2.67;2.47;;;14.70;99.90;;;;;;4823480;29;20404;-76
2021/07/20 02:34:51;;;;;;;2.25;2.15;;;14.80;99.90;;;;;;4866991;29;20468;-76
2021/07/20 02:37:18;;;;;;;2.43;2.23;;;14.80;99.90;;;;;;4843888;29;21052;-74
2021/07/20 02:39:44;;;;;;;2.42;2.22;;;14.80;99.90;;;;;;4859663;29;20447;-74
2021/07/20 02:42:11;;;;;;;4.40;2.72;;;14.80;99.90;;;;;;4851759;29;20954;-74
2021/07/20 02:44:38;;;;;;;2.53;2.33;;;14.80;99.90;;;;;;4873271;29;20426;-75
2021/07/20 02:47:06;;;;;;;2.97;2.78;;;14.70;99.90;;;;;;4843212;29;20436;-75
2021/07/20 02:49:33;;;;;;;3.28;2.47;;;14.70;99.90;;;;;;4863255;29;20460;-75
2021/07/20 02:51:59;;;;;;;2.40;2.20;;;14.60;99.90;;;;;;4857903;29;20413;-74
2021/07/20 02:54:25;;;;;;;2.58;2.38;;;14.50;99.90;;;;;;4851670;29;20447;-75
2021/07/20 02:56:52;;;;;;;2.90;2.60;;;14.50;99.90;;;;;;4841802;29;20934;-89
2021/07/20 02:59:20;;;;;;;3.85;2.63;;;14.60;99.90;;;;;;4863397;29;20405;-82
2021/07/20 03:02:04;;;;;;;2.85;2.47;;;14.60;99.90;;;;;;4854421;29;21029;-77
2021/07/20 03:04:31;;;;;;;3.08;2.50;;;14.60;99.90;;;;;;4825884;29;20400;-75
2021/07/20 03:07:02;;;;;;;2.60;2.40;;;14.60;99.90;;;;;;4851317;29;20408;-76
2021/07/20 03:09:30;;;;;;;2.53;2.33;;;14.60;99.90;;;;;;4835114;29;20427;-77
2021/07/20 03:12:00;;;;;;;2.63;2.42;;;14.50;99.90;;;;;;4848330;29;20804;-74
2021/07/20 03:14:28;;;;;;;2.50;2.40;;;14.50;99.90;;;;;;4843808;29;20405;-76
2021/07/20 03:17:03;;;;;;;2.47;2.28;;;14.50;99.90;;;;;;4844019;29;20929;-76
2021/07/20 03:19:30;;;;;;;2.65;2.42;;;14.50;99.90;;;;;;4845546;29;20413;-75
2021/07/20 03:22:01;;;;;;;2.95;2.58;;;14.50;99.90;;;;;;4838652;29;20426;-74
2021/07/20 03:24:27;;;;;;;2.22;2.05;;;14.50;99.90;;;;;;4837861;29;20408;-79
2021/07/20 03:26:56;;;;;;;2.72;2.38;;;14.50;99.90;;;;;;4842357;29;20976;-77
2021/07/20 03:29:22;;;;;;;1.90;1.80;;;14.50;99.90;;;;;;4854242;29;20420;-75
2021/07/20 03:31:50;;;;;;;3.78;2.85;;;14.60;99.90;;;;;;4872810;29;20415;-76
2021/07/20 03:34:16;;;;;;;2.65;2.45;;;14.50;99.90;;;;;;4869647;29;20468;-80
2021/07/20 03:36:42;;;;;;;2.40;2.20;;;14.50;99.90;;;;;;4869465;29;20432;-74
2021/07/20 03:39:10;;;;;;;2.60;2.40;;;14.50;99.90;;;;;;4858086;29;20404;-74
2021/07/20 03:41:36;;;;;;;2.57;2.37;;;14.50;99.90;;;;;;4875842;29;20466;-75
2021/07/20 03:44:02;;;;;;;2.80;2.60;;;14.60;99.90;;;;;;4856897;29;20421;-75
2021/07/20 03:46:29;;;;;;;2.50;2.30;;;14.60;99.90;;;;;;4843013;29;20402;-77
2021/07/20 03:48:56;;;;;;;2.58;2.38;;;14.60;99.90;;;;;;4860377;29;20457;-74
2021/07/20 03:51:42;;;;;;;2.72;2.53;;;14.60;99.90;;;;;;4859380;29;20403;-74
2021/07/20 03:54:09;;;;;;;2.70;2.50;;;14.50;99.90;;;;;;4846399;29;20413;-74
2021/07/20 03:56:35;;;;;;;3.17;2.88;;;14.50;99.90;;;;;;4861271;29;20418;-75
2021/07/20 03:59:02;;;;;;;2.57;2.37;;;14.50;99.90;;;;;;4859783;29;20409;-74
2021/07/20 04:01:36;;;;;;;2.92;2.72;;;14.60;99.90;;;;;;4870020;29;20404;-82
2021/07/20 04:04:08;;;;;;;2.70;2.50;;;14.60;99.90;;;;;;4852297;29;20413;-75
2021/07/20 04:06:57;;;;;;;3.20;2.70;;;14.70;99.90;;;;;;4874426;29;20876;-77
2021/07/20 04:09:32;;;;;;;2.95;2.65;;;14.60;99.90;;;;;;4861976;29;20399;-75
2021/07/20 04:12:13;;;;;;;2.90;2.67;;;14.50;99.90;;;;;;4847165;29;20401;-75
2021/07/20 04:15:05;;;;;;;3.72;2.92;;;14.50;99.90;;;;;;4859341;29;20433;-74
2021/07/20 04:17:37;;;;;;;2.40;2.20;;;14.50;99.90;;;;;;4863948;29;20514;-78
2021/07/20 04:20:04;;;;;;;2.70;2.50;;;14.50;99.90;;;;;;4857966;29;20416;-73
2021/07/20 04:22:32;;;;;;;3.22;2.92;;;14.60;99.90;;;;;;4859005;29;20418;-73
2021/07/20 04:24:58;;;;;;;5.57;2.47;;;14.70;99.90;;;;;;4859033;29;20419;-80
2021/07/20 04:27:33;;;;;;;2.50;2.30;;;14.70;99.90;;;;;;4849523;29;20938;-75
2021/07/20 04:29:59;;;;;;;2.60;2.40;;;14.80;99.90;;;;;;4850796;29;20414;-76
2021/07/20 04:32:26;;;;;;;2.60;2.37;;;14.80;99.90;;;;;;4836583;29;20429;-75
2021/07/20 04:34:54;;;;;;;3.22;2.47;;;15.00;99.90;;;;;;4842759;29;20902;-76
2021/07/20 04:37:23;;;;;;;2.78;2.58;;;15.00;99.90;;;;;;4854992;29;20395;-74
2021/07/20 04:39:52;;;;;;;2.50;2.30;;;15.10;99.90;;;;;;4848733;29;20406;-74
2021/07/20 04:42:19;;;;;;;5.20;2.28;;;15.20;99.90;;;;;;4863083;29;20950;-74
2021/07/20 04:44:45;;;;;;;2.80;2.50;;;15.20;99.90;;;;;;4847039;29;20399;-74
2021/07/20 04:47:19;;;;;;;2.40;2.20;;;15.20;99.90;;;;;;4860932;29;20560;-74
2021/07/20 04:49:48;;;;;;;2.83;2.63;;;15.20;99.90;;;;;;4854776;29;20830;-74
2021/07/20 04:52:14;;;;;;;2.93;2.73;;;15.30;99.90;;;;;;4858232;29;20523;-75
2021/07/20 04:54:40;;;;;;;2.58;2.38;;;15.40;99.90;;;;;;4846618;29;20507;-83
2021/07/20 04:57:06;;;;;;;2.70;2.50;;;15.40;99.90;;;;;;4836984;29;20407;-74
2021/07/20 04:59:46;;;;;;;2.90;2.65;;;15.50;99.90;;;;;;4870520;29;20411;-75
2021/07/20 05:02:18;;;;;;;2.33;2.13;;;15.60;99.90;;;;;;4830705;29;20905;-74
2021/07/20 05:04:47;;;;;;;2.47;2.28;;;15.70;99.90;;;;;;4846593;29;20446;-74
2021/07/20 05:07:15;;;;;;;2.40;2.20;;;15.80;99.90;;;;;;4837725;29;20401;-75
2021/07/20 05:09:44;;;;;;;2.67;2.30;;;15.90;99.90;;;;;;4847747;29;20407;-75
2021/07/20 05:12:11;;;;;;;2.45;2.25;;;15.90;99.90;;;;;;4835752;29;20445;-73
2021/07/20 05:14:47;;;;;;;2.55;2.35;;;15.90;99.90;;;;;;4858676;29;20524;-74
2021/07/20 05:17:12;;;;;;;2.10;1.90;;;16.00;99.90;;;;;;4849961;29;20396;-78
2021/07/20 05:19:41;;;;;;;2.88;2.40;;;16.00;99.90;;;;;;4850345;29;20997;-76
2021/07/20 05:22:16;;;;;;;2.85;2.65;;;16.10;99.90;;;;;;4860172;29;20407;-75
2021/07/20 05:24:48;;;;;;;2.30;2.20;;;16.00;99.90;;;;;;4835406;29;20421;-80
2021/07/20 05:27:16;;;;;;;2.70;2.25;;;16.10;99.90;;;;;;4865452;29;20404;-75
2021/07/20 05:29:46;;;;;;;2.58;2.38;;;16.10;99.90;;;;;;4828425;29;20432;-74
2021/07/20 05:32:26;;;;;;;2.65;2.45;;;16.20;99.90;;;;;;4869442;29;20411;-74
2021/07/20 05:34:54;;;;;;;2.53;2.33;;;16.40;99.90;;;;;;4838354;29;20951;-73
2021/07/20 05:37:20;;;;;;;2.60;2.40;;;16.50;99.90;;;;;;4848914;29;20408;-74
2021/07/20 05:39:48;;;;;;;2.30;2.10;;;16.50;99.90;;;;;;4832515;29;21205;-74
2021/07/20 05:42:18;;;;;;;4.50;2.50;;;16.60;99.90;;;;;;4868064;29;20521;-75
2021/07/20 05:44:45;;;;;;;2.95;2.30;;;16.70;99.90;;;;;;4874052;29;20468;-76
2021/07/20 05:47:13;;;;;;;2.47;2.28;;;16.80;99.90;;;;;;4847065;29;20883;-74
2021/07/20 05:49:39;;;;;;;2.53;2.33;;;16.90;99.90;;;;;;4848019;29;21110;-75
2021/07/20 05:52:05;;;;;;;2.15;1.95;;;17.00;99.90;;;;;;4869025;29;20466;-76
2021/07/20 05:54:33;;;;;;;2.58;2.38;;;17.20;99.90;;;;;;4849374;29;20412;-75
2021/07/20 05:57:08;;;;;;;2.45;2.28;;;17.40;99.90;;;;;;4857353;29;20404;-76
2021/07/20 05:59:51;;;;;;;2.70;2.50;;;17.50;99.90;;;;;;4869387;29;20418;-79
2021/07/20 06:02:24;;;;;;;2.53;2.33;;;17.60;99.90;;;;;;4873148;29;20414;-75
2021/07/20 06:04:50;;;;;;;6.07;1.85;;;17.60;99.90;;;;;;4871146;29;20408;-74
2021/07/20 06:07:16;;;;;;;2.05;1.80;;;17.80;99.90;;;;;;4850404;29;20408;-74
2021/07/20 06:09:43;;;;;;;1.83;1.73;;;17.80;99.90;;;;;;4851028;29;20761;-74
2021/07/20 06:12:09;;;;;;;2.40;2.20;;;17.90;99.90;;;;;;4875764;29;20902;-75
2021/07/20 06:14:35;;;;;;;2.20;2.00;;;18.00;99.90;;;;;;4844336;29;20404;-75
2021/07/20 06:17:01;;;;;;;2.63;2.03;;;18.10;99.90;;;;;;4863088;29;20416;-75
2021/07/20 06:19:27;;;;;;;2.17;2.07;;;18.20;99.90;;;;;;4818585;29;20425;-75
2021/07/20 06:21:53;;;;;;;2.10;2.00;;;18.30;99.90;;;;;;4855792;29;20756;-76
2021/07/20 06:24:22;;;;;;;2.20;2.03;;;18.40;99.90;;;;;;4824815;29;20942;-76
2021/07/20 06:26:49;;;;;;;2.53;2.08;;;18.50;99.90;;;;;;4859577;29;20432;-76
2021/07/20 06:29:14;;;;;;;2.45;2.22;;;18.60;99.90;;;;;;4860362;29;20409;-74
2021/07/20 06:31:45;;;;;;;2.90;2.50;;;18.70;99.90;;;;;;4840923;29;20401;-75
2021/07/20 06:34:13;;;;;;;2.08;1.98;;;18.70;99.90;;;;;;4851280;29;20488;-76
2021/07/20 06:36:38;;;;;;;2.22;2.10;;;18.90;99.90;;;;;;4864741;29;20502;-75
2021/07/20 06:39:04;;;;;;;2.30;2.10;;;19.00;99.90;;;;;;4870114;29;20999;-76
2021/07/20 06:41:34;;;;;;;3.60;1.87;;;19.10;99.90;;;;;;4838869;29;20818;-75
2021/07/20 06:44:00;;;;;;;2.00;1.90;;;19.20;99.90;;;;;;4878148;29;20860;-76
2021/07/20 06:46:26;;;;;;;2.23;2.00;;;19.20;99.90;;;;;;4851363;29;20393;-75
2021/07/20 06:48:52;;;;;;;6.38;2.05;;;19.30;99.90;;;;;;4848729;29;20399;-75
2021/07/20 06:51:17;;;;;;;2.07;1.87;;;19.30;99.90;;;;;;4858637;29;20426;-76
2021/07/20 06:53:43;;;;;;;1.75;1.65;;;19.40;99.90;;;;;;4837333;29;20934;-75
2021/07/20 06:56:10;;;;;;;2.30;2.10;;;19.60;99.90;;;;;;4845940;29;20425;-76
2021/07/20 06:58:38;;;;;;;2.60;1.90;;;19.70;99.90;;;;;;4843151;29;20469;-75
2021/07/20 07:01:03;;;;;;;2.20;2.00;;;19.80;99.90;;;;;;4851650;29;20441;-75
2021/07/20 07:03:46;;;;;;;3.17;1.80;;;19.90;99.90;;;;;;4820812;29;20399;-76
2021/07/20 07:06:12;;;;;;;2.00;1.90;;;20.20;99.90;;;;;;4856773;29;20404;-76
2021/07/20 07:08:38;;;;;;;1.95;1.85;;;20.40;99.90;;;;;;4862362;29;20895;-75
2021/07/20 07:11:03;;;;;;;2.43;1.93;;;20.50;99.90;;;;;;4861862;29;20410;-75
2021/07/20 07:13:29;;;;;;;1.73;1.63;;;20.60;99.90;;;;;;4857931;29;20399;-75
2021/07/20 07:15:56;;;;;;;2.25;1.98;;;20.50;99.90;;;;;;4862640;29;20437;-76
2021/07/20 07:18:23;;;;;;;1.92;1.83;;;20.40;99.90;;;;;;4852300;29;20502;-75
2021/07/20 07:20:50;;;;;;;1.85;1.73;;;20.60;99.90;;;;;;4876927;29;20406;-76
2021/07/20 07:23:17;;;;;;;2.25;1.83;;;20.70;99.90;;;;;;4842641;29;20416;-75
2021/07/20 07:25:47;;;;;;;2.00;1.90;;;20.70;99.90;;;;;;4859891;29;20410;-75
2021/07/20 07:28:13;;;;;;;1.98;1.88;;;20.70;99.90;;;;;;4862626;29;20414;-76
2021/07/20 07:30:38;;;;;;;2.92;2.00;;;20.80;99.90;;;;;;4873483;29;20420;-75
2021/07/20 07:33:04;;;;;;;2.30;2.00;;;20.80;99.90;;;;;;4838835;29;21032;-75
2021/07/20 07:35:30;;;;;;;1.80;1.70;;;21.00;99.90;;;;;;4862331;29;20427;-76
2021/07/20 07:37:56;;;;;;;2.47;1.50;;;21.20;99.90;;;;;;4848396;29;20404;-75
2021/07/20 07:40:22;;;;;;;1.85;1.75;;;21.40;99.90;;;;;;4857165;29;20781;-75
2021/07/20 07:42:48;;;;;;;1.50;1.40;;;21.50;99.90;;;;;;4837990;29;20428;-75
2021/07/20 07:45:14;;;;;;;1.70;1.60;;;21.80;99.90;;;;;;4820725;29;20430;-75
2021/07/20 07:47:39;;;;;;;1.70;1.60;;;21.80;99.90;;;;;;4846322;29;20442;-75
2021/07/20 07:50:06;;;;;;;2.10;1.95;;;21.70;99.90;;;;;;4845280;29;20421;-75
2021/07/20 07:52:33;;;;;;;2.08;1.52;;;21.70;99.90;;;;;;4861238;29;20428;-75
2021/07/20 07:54:59;;;;;;;1.45;1.35;;;21.70;99.90;;;;;;4869178;29;20917;-75
2021/07/20 07:57:24;;;;;;;1.83;1.50;;;21.70;99.90;;;;;;4869778;29;20433;-76
2021/07/20 07:59:52;;;;;;;1.40;1.30;;;21.90;99.90;;;;;;4864969;29;20416;-76
2021/07/20 08:02:21;;;;;;;2.15;1.70;;;21.90;99.90;;;;;;4834205;29;20403;-76
2021/07/20 08:04:47;;;;;;;2.10;1.60;;;22.10;99.90;;;;;;4842749;29;20420;-76
2021/07/20 08:07:12;;;;;;;1.60;1.50;;;22.40;99.90;;;;;;4867201;29;20895;-76
2021/07/20 08:09:38;;;;;;;1.50;1.40;;;22.80;99.90;;;;;;4840784;29;20407;-78
2021/07/20 08:12:04;;;;;;;1.65;1.45;;;23.00;99.90;;;;;;4854443;29;20438;-76
2021/07/20 08:14:30;;;;;;;1.67;1.58;;;23.30;99.90;;;;;;4819150;29;20484;-76
2021/07/20 08:16:58;;;;;;;1.40;1.30;;;23.50;99.90;;;;;;4840456;29;20417;-78
2021/07/20 08:19:26;;;;;;;2.10;1.40;;;23.60;99.90;;;;;;4855383;29;20405;-78
2021/07/20 08:21:58;;;;;;;1.75;1.40;;;23.70;99.90;;;;;;4839118;29;20929;-76
2021/07/20 08:24:23;;;;;;;1.13;1.13;;;23.60;99.90;;;;;;4862432;29;20465;-76
2021/07/20 08:26:51;;;;;;;1.25;1.25;;;23.60;99.90;;;;;;4845563;29;20409;-76
2021/07/20 08:29:19;;;;;;;1.40;1.30;;;23.60;99.90;;;;;;4878556;29;20402;-76
2021/07/20 08:32:01;;;;;;;1.40;1.30;;;23.60;99.90;;;;;;4870204;29;20403;-76
2021/07/20 08:34:28;;;;;;;1.63;1.52;;;23.80;99.90;;;;;;4857923;29;20403;-76
2021/07/20 08:36:54;;;;;;;1.50;1.30;;;24.00;99.90;;;;;;4841166;29;20409;-75
2021/07/20 08:39:19;;;;;;;1.33;1.23;;;24.20;99.90;;;;;;4852335;29;20399;-76
2021/07/20 08:42:06;;;;;;;1.45;1.35;;;24.60;99.90;;;;;;4836187;29;20477;-76
2021/07/20 08:45:00;;;;;;;1.05;1.05;;;25.00;99.90;;;;;;4868242;29;20407;-76
2021/07/20 08:47:40;;;;;;;1.20;1.20;;;24.90;99.90;;;;;;4863615;29;20429;-76
2021/07/20 08:50:36;;;;;;;1.90;1.20;;;24.70;99.90;;;;;;4862793;29;20427;-76
2021/07/20 08:53:23;;;;;;;1.80;1.30;;;24.80;99.90;;;;;;4874868;29;20464;-76
2021/07/20 08:55:50;;;;;;;1.10;1.10;;;24.70;99.80;;;;;;4875977;29;20423;-76
2021/07/20 08:58:30;;;;;;;1.27;1.17;;;24.60;99.10;;;;;;4843728;29;21116;-76
2021/07/20 09:01:00;;;;;;;1.30;1.20;;;24.60;99.10;;;;;;4874393;29;21134;-76
2021/07/20 09:03:35;;;;;;;1.38;1.30;;;24.60;99.90;;;;;;4874712;29;20399;-76
2021/07/20 09:06:10;;;;;;;1.52;1.42;;;24.50;99.90;;;;;;4877997;29;20424;-76
2021/07/20 09:08:44;;;;;;;1.60;1.50;;;24.60;99.90;;;;;;4858728;29;20413;-76
2021/07/20 09:11:19;;;;;;;1.52;1.42;;;24.70;99.90;;;;;;4843441;29;20412;-76
2021/07/20 09:13:54;;;;;;;1.30;1.20;;;24.80;99.90;;;;;;4873091;29;20431;-77
2021/07/20 09:16:31;;;;;;;1.20;1.20;;;24.50;99.90;;;;;;4842549;29;20425;-76
2021/07/20 09:19:04;;;;;;;1.67;1.58;;;24.50;99.90;;;;;;4866336;29;20421;-76
2021/07/20 09:21:31;;;;;;;2.15;1.75;;;24.50;99.90;;;;;;4855137;29;20929;-76
2021/07/20 09:24:05;;;;;;;2.25;1.55;;;23.80;99.90;;;;;;4854854;29;20415;-76
2021/07/20 09:26:36;;;;;;;1.63;1.52;;;23.90;99.90;;;;;;4855714;29;20463;-76
2021/07/20 09:29:06;;;;;;;1.10;1.10;;;23.70;99.90;;;;;;4872270;29;20418;-76
2021/07/20 09:32:00;;;;;;;1.45;1.35;;;23.80;99.90;;;;;;4870891;29;20450;-76
2021/07/20 09:34:27;;;;;;;1.42;1.33;;;23.90;99.90;;;;;;4861455;29;20419;-76
2021/07/20 09:36:59;;;;;;;1.55;1.45;;;23.80;99.90;;;;;;4839263;29;20936;-76
2021/07/20 09:39:43;;;;;;;1.50;1.40;;;23.80;99.90;;;;;;4813718;29;20444;-76
2021/07/20 09:42:13;;;;;;;3.50;1.52;;;24.00;99.90;;;;;;4877993;29;20412;-76
2021/07/20 09:44:48;;;;;;;1.10;1.10;;;24.50;99.90;;;;;;4844457;29;20475;-77
2021/07/20 09:47:30;;;;;;;1.70;1.30;;;25.00;99.90;;;;;;4856541;29;20459;-76
2021/07/20 09:50:15;;;;;;;1.13;1.13;;;25.10;98.90;;;;;;4862707;29;20418;-77
2021/07/20 09:53:05;;;;;;;2.25;1.45;;;25.10;96.70;;;;;;4837022;29;20416;-76
2021/07/20 09:55:53;;;;;;;1.10;1.10;;;25.10;94.60;;;;;;4864334;29;20420;-76
2021/07/20 09:58:28;;;;;;;1.87;1.23;;;25.10;96.80;;;;;;4888041;29;20503;-76
2021/07/20 10:01:00;;;;;;;1.40;1.30;;;25.30;95.30;;;;;;4843512;29;20948;-76
2021/07/20 10:03:34;;;;;;;1.50;1.20;;;25.80;97.10;;;;;;4863643;29;20409;-77
2021/07/20 10:06:13;;;;;;;1.30;1.20;;;26.10;93.60;;;;;;4857548;29;20412;-77
2021/07/20 10:08:57;;;;;;;1.20;1.20;;;26.00;94.00;;;;;;4860086;29;20414;-76
2021/07/20 10:11:38;;;;;;;1.13;1.08;;;26.10;92.80;;;;;;4839878;29;20490;-77
2021/07/20 10:14:07;;;;;;;1.63;1.40;;;26.00;93.10;;;;;;4851119;29;21028;-77
2021/07/20 10:16:52;;;;;;;1.10;1.10;;;25.60;91.40;;;;;;4867763;29;20489;-77
2021/07/20 10:19:31;;;;;;;1.02;1.02;;;25.80;92.50;;;;;;4884528;29;20903;-77
2021/07/20 10:21:58;;;;;;;1.00;1.00;;;25.70;92.10;;;;;;4847764;29;20476;-77
2021/07/20 10:24:25;;;;;;;1.10;1.10;;;25.80;92.70;;;;;;4850315;29;20967;-77
2021/07/20 10:26:58;;;;;;;1.70;1.20;;;25.90;93.80;;;;;;4839542;29;20472;-77
2021/07/20 10:29:45;;;;;;;1.40;1.30;;;26.00;92.40;;;;;;4850209;29;20420;-77
2021/07/20 10:32:29;;;;;;;1.07;1.03;;;26.00;87.20;;;;;;4846348;29;20507;-77
2021/07/20 10:35:02;;;;;;;1.33;1.23;;;25.60;88.40;;;;;;4886348;29;20427;-78
2021/07/20 10:37:36;;;;;;;1.27;1.08;;;25.60;91.70;;;;;;4850790;29;20402;-77
2021/07/20 10:40:28;;;;;;;1.40;1.30;;;25.60;93.40;;;;;;4857465;29;20415;-77
2021/07/20 10:43:05;;;;;;;1.02;1.02;;;25.70;92.30;;;;;;4876733;29;20436;-77
2021/07/20 10:45:33;;;;;;;1.15;1.08;;;25.40;90.50;;;;;;4866777;29;20401;-77
2021/07/20 10:48:12;;;;;;;1.08;1.08;;;25.60;91.70;;;;;;4855846;29;20400;-77
2021/07/20 10:50:58;;;;;;;1.77;1.30;;;25.50;91.70;;;;;;4865658;29;20401;-77
2021/07/20 10:53:27;;;;;;;1.10;1.10;;;25.30;88.30;;;;;;4855045;29;20408;-77
2021/07/20 10:56:02;;;;;;;1.40;1.30;;;25.30;91.40;;;;;;4878030;29;20419;-77
2021/07/20 10:59:05;;;;;;;1.40;1.30;;;25.50;90.00;;;;;;4870673;29;20478;-77
2021/07/20 11:01:52;;;;;;;1.02;1.02;;;25.60;91.50;;;;;;4887702;29;20425;-77
2021/07/20 11:04:54;;;;;;;1.83;1.23;;;25.70;90.00;;;;;;4869229;29;20402;-77
2021/07/20 11:07:47;;;;;;;1.35;1.27;;;25.40;92.00;;;;;;4890570;29;20406;-77
2021/07/20 11:10:21;;;;;;;0.98;0.95;;;25.30;90.40;;;;;;4876305;29;20415;-77
2021/07/20 11:12:48;;;;;;;1.23;1.13;;;25.40;89.80;;;;;;4863352;29;20429;-78
2021/07/20 11:15:14;;;;;;;1.40;1.25;;;25.40;89.90;;;;;;4848833;29;20456;-78
2021/07/20 11:17:40;;;;;;;1.40;1.30;;;25.30;91.70;;;;;;4857833;29;20404;-79
2021/07/20 11:20:08;;;;;;;2.87;1.23;;;25.40;90.80;;;;;;4855950;29;20436;-78
2021/07/20 11:22:35;;;;;;;1.23;1.20;;;25.50;91.10;;;;;;4864594;29;20979;-79
2021/07/20 11:25:01;;;;;;;1.10;1.08;;;25.50;88.80;;;;;;4842258;29;20997;-78
2021/07/20 11:27:27;;;;;;;1.40;1.30;;;25.40;90.20;;;;;;4855817;29;20411;-78
2021/07/20 11:29:52;;;;;;;1.10;1.10;;;25.40;90.30;;;;;;4858610;29;20417;-77
2021/07/20 11:32:21;;;;;;;2.93;1.43;;;25.50;89.80;;;;;;4857628;29;20928;-77
2021/07/20 11:35:09;;;;;;;1.25;1.20;;;25.50;89.70;;;;;;4870602;29;20416;-77
2021/07/20 11:37:41;;;;;;;1.80;1.15;;;25.50;87.80;;;;;;4860147;29;20401;-77
2021/07/20 11:40:08;;;;;;;1.40;1.30;;;25.40;88.80;;;;;;4873500;29;20465;-77
2021/07/20 11:42:44;;;;;;;1.20;1.20;;;25.30;91.50;;;;;;4872933;29;20404;-77
2021/07/20 11:45:12;;;;;;;1.30;1.20;;;25.30;92.40;;;;;;4860059;29;20422;-77
2021/07/20 11:47:38;;;;;;;1.10;1.10;;;25.20;91.00;;;;;;4851762;29;20456;-77
2021/07/20 11:50:09;;;;;;;1.37;1.30;;;25.00;92.20;;;;;;4885609;29;20442;-78
2021/07/20 11:52:47;;;;;;;1.55;1.45;;;25.00;91.80;;;;;;4852118;29;20428;-77
2021/07/20 11:59:32;;;;;;;1.30;1.20;;;24.90;93.70;;;;;;4884297;29;20411;-77
2021/07/20 12:02:18;;;;;;;1.27;1.27;;;25.10;92.10;;;;;;4854891;29;20829;-78
2021/07/20 12:05:09;;;;;;;1.48;1.38;;;25.30;92.50;;;;;;4890760;29;20434;-78
2021/07/20 12:07:35;;;;;;;1.65;1.55;;;25.30;93.40;;;;;;4870705;29;20423;-77
2021/07/20 12:10:20;;;;;;;1.35;1.27;;;25.40;91.50;;;;;;4867478;29;20416;-77
2021/07/20 12:13:03;;;;;;;1.38;1.27;;;25.50;91.80;;;;;;4888704;29;20509;-77
2021/07/20 12:15:29;;;;;;;1.60;1.50;;;25.20;91.60;;;;;;4865567;29;20423;-78
2021/07/20 12:17:55;;;;;;;1.47;1.37;;;25.10;90.40;;;;;;4864303;29;20408;-77
2021/07/20 12:20:22;;;;;;;1.40;1.30;;;25.20;91.50;;;;;;4839533;29;20483;-77
2021/07/20 12:22:49;;;;;;;1.65;1.55;;;25.20;91.20;;;;;;4853666;29;20499;-77
2021/07/20 12:25:16;;;;;;;1.50;1.40;;;25.10;91.20;;;;;;4827271;29;21182;-77
2021/07/20 12:27:41;;;;;;;1.58;1.48;;;24.80;91.00;;;;;;4848237;29;20568;-77
2021/07/20 12:30:12;;;;;;;1.50;1.40;;;24.90;91.60;;;;;;4850868;29;20912;-78
2021/07/20 12:32:39;;;;;;;1.58;1.48;;;25.30;93.30;;;;;;4853136;29;20414;-77
2021/07/20 12:35:05;;;;;;;1.38;1.30;;;25.70;91.80;;;;;;4864740;29;20439;-77
2021/07/20 12:37:31;;;;;;;1.27;1.20;;;25.80;91.20;;;;;;4856563;29;20426;-77
2021/07/20 12:39:57;;;;;;;1.53;1.43;;;25.90;92.00;;;;;;4847831;29;20771;-78
2021/07/20 12:42:23;;;;;;;1.60;1.50;;;25.70;90.60;;;;;;4856592;29;20449;-77
2021/07/20 12:45:21;;;;;;;1.83;1.70;;;25.70;92.50;;;;;;4870466;29;20413;-77
2021/07/20 12:47:48;;;;;;;1.38;1.27;;;26.10;94.10;;;;;;4824211;29;21068;-77
2021/07/20 12:50:15;;;;;;;1.40;1.30;;;26.50;91.80;;;;;;4856040;29;20425;-77
2021/07/20 12:52:43;;;;;;;1.48;1.38;;;26.80;91.80;;;;;;4857797;29;20433;-77
2021/07/20 12:55:30;;;;;;;1.58;1.48;;;27.40;92.90;;;;;;4864592;29;20502;-77
2021/07/20 12:57:57;;;;;;;1.70;1.50;;;27.80;89.40;;;;;;4874812;29;20406;-78
2021/07/20 13:00:29;;;;;;;1.48;1.38;;;28.40;89.70;;;;;;4870690;29;20973;-77
2021/07/20 13:02:58;;;;;;;1.50;1.40;;;28.50;88.80;;;;;;4855259;29;20409;-77
2021/07/20 13:05:25;;;;;;;1.35;1.25;;;28.70;90.50;;;;;;4872375;29;20498;-77
2021/07/20 13:07:51;;;;;;;2.00;1.70;;;28.90;85.70;;;;;;4844024;29;21167;-77
2021/07/20 13:10:17;;;;;;;1.50;1.40;;;28.30;82.10;;;;;;4878113;29;20572;-77
2021/07/20 13:12:43;;;;;;;1.90;1.80;;;27.80;85.00;;;;;;4860140;29;20405;-78